sensor_id;sensor_type;location;lat;lon;timestamp;temperature;humidity
2625;DHT22;1322;53.256;10.386;2023-04-05T00:01:46;3.60;99.90
2625;DHT22;1322;53.256;10.386;2023-04-05T00:04:14;3.50;99.90
2625;DHT22;1322;53.256;10.386;2023-04-05T00:06:46;3.50;99.90
2625;DHT22;1322;53.256;10.386;2023-04-05T00:09:16;3.40;99.90
2625;DHT22;1322;53.256;10.386;2023-04-05T00:11:42;3.40;99.90
2625;DHT22;1322;53.256;10.386;2023-04-05T00:14:08;3.40;99.90
2625;DHT22;1322;53.256;10.386;2023-04-05T00:16:34;3.40;99.90
2625;DHT22;1322;53.256;10.386;2023-04-05T00:19:00;3.40;99.90
2625;DHT22;1322;53.256;10.386;2023-04-05T00:21:26;3.30;99.90
2625;DHT22;1322;53.256;10.386;2023-04-05T00:23:54;3.30;99.90
2625;DHT22;1322;53.256;10.386;2023-04-05T00:26:21;3.20;99.90
2625;DHT22;1322;53.256;10.386;2023-04-05T00:28:47;3.20;99.90
2625;DHT22;1322;53.256;10.386;2023-04-05T00:31:13;3.10;99.90
2625;DHT22;1322;53.256;10.386;2023-04-05T00:33:43;3.10;99.90
2625;DHT22;1322;53.256;10.386;2023-04-05T00:38:35;3.10;99.90
2625;DHT22;1322;53.256;10.386;2023-04-05T00:41:01;3.00;99.90
2625;DHT22;1322;53.256;10.386;2023-04-05T00:43:27;3.00;99.90
2625;DHT22;1322;53.256;10.386;2023-04-05T00:45:53;3.00;99.90
2625;DHT22;1322;53.256;10.386;2023-04-05T00:48:19;2.90;99.90
2625;DHT22;1322;53.256;10.386;2023-04-05T00:50:48;2.90;99.90
2625;DHT22;1322;53.256;10.386;2023-04-05T00:53:15;2.90;99.90
2625;DHT22;1322;53.256;10.386;2023-04-05T00:55:41;2.90;99.90
2625;DHT22;1322;53.256;10.386;2023-04-05T00:58:07;2.90;99.90
2625;DHT22;1322;53.256;10.386;2023-04-05T01:00:36;2.90;99.90
2625;DHT22;1322;53.256;10.386;2023-04-05T01:03:04;2.90;99.90
2625;DHT22;1322;53.256;10.386;2023-04-05T01:05:39;2.80;99.90
2625;DHT22;1322;53.256;10.386;2023-04-05T01:10:58;2.70;99.90
2625;DHT22;1322;53.256;10.386;2023-04-05T01:13:24;2.80;99.90
2625;DHT22;1322;53.256;10.386;2023-04-05T01:15:50;2.60;99.90
2625;DHT22;1322;53.256;10.386;2023-04-05T01:18:17;2.60;99.90
2625;DHT22;1322;53.256;10.386;2023-04-05T01:20:58;2.70;99.90
2625;DHT22;1322;53.256;10.386;2023-04-05T01:26:08;2.70;99.90
2625;DHT22;1322;53.256;10.386;2023-04-05T01:28:54;2.70;99.90
2625;DHT22;1322;53.256;10.386;2023-04-05T01:31:36;2.60;99.90
2625;DHT22;1322;53.256;10.386;2023-04-05T01:36:58;2.60;99.90
2625;DHT22;1322;53.256;10.386;2023-04-05T01:39:25;2.60;99.90
2625;DHT22;1322;53.256;10.386;2023-04-05T01:41:57;2.60;99.90
2625;DHT22;1322;53.256;10.386;2023-04-05T01:44:23;2.70;99.90
2625;DHT22;1322;53.256;10.386;2023-04-05T01:46:49;2.60;99.90
2625;DHT22;1322;53.256;10.386;2023-04-05T01:49:14;2.60;99.90
2625;DHT22;1322;53.256;10.386;2023-04-05T01:51:40;2.60;99.90
2625;DHT22;1322;53.256;10.386;2023-04-05T01:54:06;2.60;99.90
2625;DHT22;1322;53.256;10.386;2023-04-05T01:56:32;2.60;99.90
2625;DHT22;1322;53.256;10.386;2023-04-05T01:58:58;2.60;99.90
2625;DHT22;1322;53.256;10.386;2023-04-05T02:01:23;2.60;99.90
2625;DHT22;1322;53.256;10.386;2023-04-05T02:03:49;2.50;99.90
2625;DHT22;1322;53.256;10.386;2023-04-05T02:06:15;2.50;99.90
2625;DHT22;1322;53.256;10.386;2023-04-05T02:08:41;2.50;99.90
2625;DHT22;1322;53.256;10.386;2023-04-05T02:11:06;2.50;99.90
2625;DHT22;1322;53.256;10.386;2023-04-05T02:13:32;2.50;99.90
2625;DHT22;1322;53.256;10.386;2023-04-05T02:15:57;2.50;99.90
2625;DHT22;1322;53.256;10.386;2023-04-05T02:18:23;2.40;99.90
2625;DHT22;1322;53.256;10.386;2023-04-05T02:21:01;2.40;99.90
2625;DHT22;1322;53.256;10.386;2023-04-05T02:23:27;2.40;99.90
2625;DHT22;1322;53.256;10.386;2023-04-05T02:25:55;2.40;99.90
2625;DHT22;1322;53.256;10.386;2023-04-05T02:28:20;2.30;99.90
2625;DHT22;1322;53.256;10.386;2023-04-05T02:30:46;2.20;99.90
2625;DHT22;1322;53.256;10.386;2023-04-05T02:33:12;2.20;99.90
2625;DHT22;1322;53.256;10.386;2023-04-05T02:35:37;2.20;99.90
2625;DHT22;1322;53.256;10.386;2023-04-05T02:38:06;2.10;99.90
2625;DHT22;1322;53.256;10.386;2023-04-05T02:40:32;2.10;99.90
2625;DHT22;1322;53.256;10.386;2023-04-05T02:42:58;2.10;99.90
2625;DHT22;1322;53.256;10.386;2023-04-05T02:45:24;2.10;99.90
2625;DHT22;1322;53.256;10.386;2023-04-05T02:47:52;2.10;99.90
2625;DHT22;1322;53.256;10.386;2023-04-05T02:50:18;2.10;99.90
2625;DHT22;1322;53.256;10.386;2023-04-05T02:52:45;2.10;99.90
2625;DHT22;1322;53.256;10.386;2023-04-05T02:55:12;2.10;99.90
2625;DHT22;1322;53.256;10.386;2023-04-05T02:57:38;1.90;99.90
2625;DHT22;1322;53.256;10.386;2023-04-05T03:00:07;1.80;99.90
2625;DHT22;1322;53.256;10.386;2023-04-05T03:02:36;1.80;99.90
2625;DHT22;1322;53.256;10.386;2023-04-05T03:05:03;1.80;99.90
2625;DHT22;1322;53.256;10.386;2023-04-05T03:07:29;1.80;99.90
2625;DHT22;1322;53.256;10.386;2023-04-05T03:09:55;2.20;99.90
2625;DHT22;1322;53.256;10.386;2023-04-05T03:12:21;1.70;99.90
2625;DHT22;1322;53.256;10.386;2023-04-05T03:14:46;1.70;99.90
2625;DHT22;1322;53.256;10.386;2023-04-05T03:17:12;1.80;99.90
2625;DHT22;1322;53.256;10.386;2023-04-05T03:19:38;1.80;99.90
2625;DHT22;1322;53.256;10.386;2023-04-05T03:22:04;1.70;99.90
2625;DHT22;1322;53.256;10.386;2023-04-05T03:24:30;1.70;99.90
2625;DHT22;1322;53.256;10.386;2023-04-05T03:26:59;1.70;99.90
2625;DHT22;1322;53.256;10.386;2023-04-05T03:29:27;1.70;99.90
2625;DHT22;1322;53.256;10.386;2023-04-05T03:31:52;1.70;99.90
2625;DHT22;1322;53.256;10.386;2023-04-05T03:34:18;1.70;99.90
2625;DHT22;1322;53.256;10.386;2023-04-05T03:36:44;1.70;99.90
2625;DHT22;1322;53.256;10.386;2023-04-05T03:39:11;1.70;99.90
2625;DHT22;1322;53.256;10.386;2023-04-05T03:41:39;1.70;99.90
2625;DHT22;1322;53.256;10.386;2023-04-05T03:44:05;1.70;99.90
2625;DHT22;1322;53.256;10.386;2023-04-05T03:46:31;1.70;99.90
2625;DHT22;1322;53.256;10.386;2023-04-05T03:48:58;1.70;99.90
2625;DHT22;1322;53.256;10.386;2023-04-05T03:51:24;1.70;99.90
2625;DHT22;1322;53.256;10.386;2023-04-05T03:53:50;1.70;99.90
2625;DHT22;1322;53.256;10.386;2023-04-05T03:56:16;1.60;99.90
2625;DHT22;1322;53.256;10.386;2023-04-05T03:58:42;1.60;99.90
2625;DHT22;1322;53.256;10.386;2023-04-05T04:01:08;1.60;99.90
2625;DHT22;1322;53.256;10.386;2023-04-05T04:03:36;1.60;99.90
2625;DHT22;1322;53.256;10.386;2023-04-05T04:06:04;1.60;99.90
2625;DHT22;1322;53.256;10.386;2023-04-05T04:08:30;1.60;99.90
2625;DHT22;1322;53.256;10.386;2023-04-05T04:10:56;1.60;99.90
2625;DHT22;1322;53.256;10.386;2023-04-05T04:13:22;1.60;99.90
2625;DHT22;1322;53.256;10.386;2023-04-05T04:15:47;1.60;99.90
2625;DHT22;1322;53.256;10.386;2023-04-05T04:18:13;1.60;99.90
2625;DHT22;1322;53.256;10.386;2023-04-05T04:20:39;1.60;99.90
2625;DHT22;1322;53.256;10.386;2023-04-05T04:23:04;1.60;99.90
2625;DHT22;1322;53.256;10.386;2023-04-05T04:25:35;1.50;99.90
2625;DHT22;1322;53.256;10.386;2023-04-05T04:28:03;1.50;99.90
2625;DHT22;1322;53.256;10.386;2023-04-05T04:30:31;1.50;99.90
2625;DHT22;1322;53.256;10.386;2023-04-05T04:32:59;1.50;99.90
2625;DHT22;1322;53.256;10.386;2023-04-05T04:35:30;1.50;99.90
2625;DHT22;1322;53.256;10.386;2023-04-05T04:38:05;1.50;99.90
2625;DHT22;1322;53.256;10.386;2023-04-05T04:40:33;1.40;99.90
2625;DHT22;1322;53.256;10.386;2023-04-05T04:43:07;1.50;99.90
2625;DHT22;1322;53.256;10.386;2023-04-05T04:45:50;1.40;99.90
2625;DHT22;1322;53.256;10.386;2023-04-05T04:48:19;1.50;99.90
2625;DHT22;1322;53.256;10.386;2023-04-05T04:50:46;1.40;99.90
2625;DHT22;1322;53.256;10.386;2023-04-05T04:53:12;1.50;99.90
2625;DHT22;1322;53.256;10.386;2023-04-05T04:55:41;1.50;99.90
2625;DHT22;1322;53.256;10.386;2023-04-05T04:58:08;1.50;99.90
2625;DHT22;1322;53.256;10.386;2023-04-05T05:00:35;1.50;99.90
2625;DHT22;1322;53.256;10.386;2023-04-05T05:03:01;1.50;99.90
2625;DHT22;1322;53.256;10.386;2023-04-05T05:05:27;1.50;99.90
2625;DHT22;1322;53.256;10.386;2023-04-05T05:07:53;1.50;99.90
2625;DHT22;1322;53.256;10.386;2023-04-05T05:10:19;1.50;99.90
2625;DHT22;1322;53.256;10.386;2023-04-05T05:12:45;1.60;99.90
2625;DHT22;1322;53.256;10.386;2023-04-05T05:15:13;1.60;99.90
2625;DHT22;1322;53.256;10.386;2023-04-05T05:17:42;1.70;99.90
2625;DHT22;1322;53.256;10.386;2023-04-05T05:20:09;1.80;99.90
2625;DHT22;1322;53.256;10.386;2023-04-05T05:22:36;1.80;99.90
2625;DHT22;1322;53.256;10.386;2023-04-05T05:25:06;1.90;99.90
2625;DHT22;1322;53.256;10.386;2023-04-05T05:27:33;2.00;99.90
2625;DHT22;1322;53.256;10.386;2023-04-05T05:29:59;2.00;99.90
2625;DHT22;1322;53.256;10.386;2023-04-05T05:32:25;2.00;99.90
2625;DHT22;1322;53.256;10.386;2023-04-05T05:34:51;2.00;99.90
2625;DHT22;1322;53.256;10.386;2023-04-05T05:37:17;2.00;99.90
2625;DHT22;1322;53.256;10.386;2023-04-05T05:39:46;2.10;99.90
2625;DHT22;1322;53.256;10.386;2023-04-05T05:42:12;2.20;99.90
2625;DHT22;1322;53.256;10.386;2023-04-05T05:44:37;2.20;99.90
2625;DHT22;1322;53.256;10.386;2023-04-05T05:47:03;2.30;99.90
2625;DHT22;1322;53.256;10.386;2023-04-05T05:49:29;2.30;99.90
2625;DHT22;1322;53.256;10.386;2023-04-05T05:51:56;2.50;99.90
2625;DHT22;1322;53.256;10.386;2023-04-05T05:54:23;2.80;99.90
2625;DHT22;1322;53.256;10.386;2023-04-05T05:56:50;3.20;99.90
2625;DHT22;1322;53.256;10.386;2023-04-05T05:59:16;3.60;99.90
2625;DHT22;1322;53.256;10.386;2023-04-05T06:01:44;4.10;99.90
2625;DHT22;1322;53.256;10.386;2023-04-05T06:04:14;4.50;99.90
2625;DHT22;1322;53.256;10.386;2023-04-05T06:06:40;4.70;99.90
2625;DHT22;1322;53.256;10.386;2023-04-05T06:09:08;5.10;99.90
2625;DHT22;1322;53.256;10.386;2023-04-05T06:11:37;5.50;99.90
2625;DHT22;1322;53.256;10.386;2023-04-05T06:14:02;5.90;99.90
2625;DHT22;1322;53.256;10.386;2023-04-05T06:16:28;6.20;99.90
2625;DHT22;1322;53.256;10.386;2023-04-05T06:18:55;6.40;99.90
2625;DHT22;1322;53.256;10.386;2023-04-05T06:21:21;6.50;99.90
2625;DHT22;1322;53.256;10.386;2023-04-05T06:23:47;6.70;99.90
2625;DHT22;1322;53.256;10.386;2023-04-05T06:26:21;6.70;99.90
2625;DHT22;1322;53.256;10.386;2023-04-05T06:28:48;6.50;99.90
2625;DHT22;1322;53.256;10.386;2023-04-05T06:31:15;6.30;99.90
2625;DHT22;1322;53.256;10.386;2023-04-05T06:33:42;6.00;99.90
2625;DHT22;1322;53.256;10.386;2023-04-05T06:36:08;5.80;99.90
2625;DHT22;1322;53.256;10.386;2023-04-05T06:38:34;5.60;99.90
2625;DHT22;1322;53.256;10.386;2023-04-05T06:41:01;5.40;99.90
2625;DHT22;1322;53.256;10.386;2023-04-05T06:43:27;5.20;99.90
2625;DHT22;1322;53.256;10.386;2023-04-05T06:45:55;5.10;99.90
2625;DHT22;1322;53.256;10.386;2023-04-05T06:48:21;5.10;99.90
2625;DHT22;1322;53.256;10.386;2023-04-05T06:50:46;5.30;99.90
2625;DHT22;1322;53.256;10.386;2023-04-05T06:53:12;5.60;99.90
2625;DHT22;1322;53.256;10.386;2023-04-05T06:55:48;5.70;99.90
2625;DHT22;1322;53.256;10.386;2023-04-05T06:58:14;6.00;99.90
2625;DHT22;1322;53.256;10.386;2023-04-05T07:00:44;6.30;99.90
2625;DHT22;1322;53.256;10.386;2023-04-05T07:03:10;6.50;99.90
2625;DHT22;1322;53.256;10.386;2023-04-05T07:05:36;6.70;99.90
2625;DHT22;1322;53.256;10.386;2023-04-05T07:08:01;7.00;99.90
2625;DHT22;1322;53.256;10.386;2023-04-05T07:10:27;7.20;99.90
2625;DHT22;1322;53.256;10.386;2023-04-05T07:12:53;7.40;99.90
2625;DHT22;1322;53.256;10.386;2023-04-05T07:15:19;7.50;99.90
2625;DHT22;1322;53.256;10.386;2023-04-05T07:17:44;7.60;99.90
2625;DHT22;1322;53.256;10.386;2023-04-05T07:20:11;7.70;99.90
2625;DHT22;1322;53.256;10.386;2023-04-05T07:22:39;7.80;99.90
2625;DHT22;1322;53.256;10.386;2023-04-05T07:25:05;7.90;99.90
2625;DHT22;1322;53.256;10.386;2023-04-05T07:27:33;8.00;99.90
2625;DHT22;1322;53.256;10.386;2023-04-05T07:29:59;8.10;99.90
2625;DHT22;1322;53.256;10.386;2023-04-05T07:32:25;8.30;99.90
2625;DHT22;1322;53.256;10.386;2023-04-05T07:34:50;8.30;99.90
2625;DHT22;1322;53.256;10.386;2023-04-05T07:37:16;8.30;99.90
2625;DHT22;1322;53.256;10.386;2023-04-05T07:39:42;8.50;99.90
2625;DHT22;1322;53.256;10.386;2023-04-05T07:42:07;8.60;99.90
2625;DHT22;1322;53.256;10.386;2023-04-05T07:44:33;8.60;99.90
2625;DHT22;1322;53.256;10.386;2023-04-05T07:46:58;8.80;99.90
2625;DHT22;1322;53.256;10.386;2023-04-05T07:49:27;8.90;99.90
2625;DHT22;1322;53.256;10.386;2023-04-05T07:51:54;9.00;99.90
2625;DHT22;1322;53.256;10.386;2023-04-05T07:54:20;9.00;99.90
2625;DHT22;1322;53.256;10.386;2023-04-05T07:56:46;9.10;99.90
2625;DHT22;1322;53.256;10.386;2023-04-05T07:59:14;9.20;99.90
2625;DHT22;1322;53.256;10.386;2023-04-05T08:01:39;9.30;99.90
2625;DHT22;1322;53.256;10.386;2023-04-05T08:04:05;9.30;99.90
2625;DHT22;1322;53.256;10.386;2023-04-05T08:06:30;9.40;99.90
2625;DHT22;1322;53.256;10.386;2023-04-05T08:08:56;9.40;99.90
2625;DHT22;1322;53.256;10.386;2023-04-05T08:11:22;9.40;99.90
2625;DHT22;1322;53.256;10.386;2023-04-05T08:13:47;9.40;99.90
2625;DHT22;1322;53.256;10.386;2023-04-05T08:16:13;9.40;99.90
2625;DHT22;1322;53.256;10.386;2023-04-05T08:18:39;9.60;99.90
2625;DHT22;1322;53.256;10.386;2023-04-05T08:21:04;9.60;99.90
2625;DHT22;1322;53.256;10.386;2023-04-05T08:23:30;9.60;99.90
2625;DHT22;1322;53.256;10.386;2023-04-05T08:25:56;9.60;99.90
2625;DHT22;1322;53.256;10.386;2023-04-05T08:28:22;9.70;99.90
2625;DHT22;1322;53.256;10.386;2023-04-05T08:30:52;9.70;99.90
2625;DHT22;1322;53.256;10.386;2023-04-05T08:33:18;9.80;99.90
2625;DHT22;1322;53.256;10.386;2023-04-05T08:35:44;9.70;99.90
2625;DHT22;1322;53.256;10.386;2023-04-05T08:38:09;9.80;99.90
2625;DHT22;1322;53.256;10.386;2023-04-05T08:40:44;9.90;99.90
2625;DHT22;1322;53.256;10.386;2023-04-05T08:43:32;10.00;99.90
2625;DHT22;1322;53.256;10.386;2023-04-05T08:45:59;10.10;99.90
2625;DHT22;1322;53.256;10.386;2023-04-05T08:48:25;10.10;99.90
2625;DHT22;1322;53.256;10.386;2023-04-05T08:50:55;10.10;99.90
2625;DHT22;1322;53.256;10.386;2023-04-05T08:53:21;10.20;99.90
2625;DHT22;1322;53.256;10.386;2023-04-05T08:55:54;10.20;99.90
2625;DHT22;1322;53.256;10.386;2023-04-05T08:58:21;10.40;99.90
2625;DHT22;1322;53.256;10.386;2023-04-05T09:00:47;10.50;99.90
2625;DHT22;1322;53.256;10.386;2023-04-05T09:03:21;10.50;99.90
2625;DHT22;1322;53.256;10.386;2023-04-05T09:05:49;10.50;99.90
2625;DHT22;1322;53.256;10.386;2023-04-05T09:08:16;10.50;99.90
2625;DHT22;1322;53.256;10.386;2023-04-05T09:10:43;10.50;99.90
2625;DHT22;1322;53.256;10.386;2023-04-05T09:13:09;10.60;99.90
2625;DHT22;1322;53.256;10.386;2023-04-05T09:15:38;10.50;99.90
2625;DHT22;1322;53.256;10.386;2023-04-05T09:18:04;10.20;99.90
2625;DHT22;1322;53.256;10.386;2023-04-05T09:20:30;10.20;99.90
2625;DHT22;1322;53.256;10.386;2023-04-05T09:22:56;10.20;99.90
2625;DHT22;1322;53.256;10.386;2023-04-05T09:28:00;10.30;99.90
2625;DHT22;1322;53.256;10.386;2023-04-05T09:30:28;10.40;99.90
2625;DHT22;1322;53.256;10.386;2023-04-05T09:32:56;10.30;99.90
2625;DHT22;1322;53.256;10.386;2023-04-05T09:35:27;10.30;99.90
2625;DHT22;1322;53.256;10.386;2023-04-05T09:38:00;10.40;99.90
2625;DHT22;1322;53.256;10.386;2023-04-05T09:40:45;10.30;99.90
2625;DHT22;1322;53.256;10.386;2023-04-05T09:43:11;10.40;99.90
2625;DHT22;1322;53.256;10.386;2023-04-05T09:45:39;10.60;99.90
2625;DHT22;1322;53.256;10.386;2023-04-05T09:48:06;10.50;99.90
2625;DHT22;1322;53.256;10.386;2023-04-05T09:50:32;10.50;99.90
2625;DHT22;1322;53.256;10.386;2023-04-05T09:53:11;10.40;99.90
2625;DHT22;1322;53.256;10.386;2023-04-05T09:55:40;10.20;99.90
2625;DHT22;1322;53.256;10.386;2023-04-05T09:58:20;10.20;99.90
2625;DHT22;1322;53.256;10.386;2023-04-05T10:00:49;10.20;99.90
2625;DHT22;1322;53.256;10.386;2023-04-05T10:03:19;10.30;99.90
2625;DHT22;1322;53.256;10.386;2023-04-05T10:05:45;10.40;99.90
2625;DHT22;1322;53.256;10.386;2023-04-05T10:08:13;10.40;99.90
2625;DHT22;1322;53.256;10.386;2023-04-05T10:10:46;10.50;99.90
2625;DHT22;1322;53.256;10.386;2023-04-05T10:13:15;10.40;99.90
2625;DHT22;1322;53.256;10.386;2023-04-05T10:15:45;10.60;99.90
2625;DHT22;1322;53.256;10.386;2023-04-05T10:18:23;10.60;98.10
2625;DHT22;1322;53.256;10.386;2023-04-05T10:20:57;10.40;97.40
2625;DHT22;1322;53.256;10.386;2023-04-05T10:23:27;10.30;97.50
2625;DHT22;1322;53.256;10.386;2023-04-05T10:26:06;10.20;98.50
2625;DHT22;1322;53.256;10.386;2023-04-05T10:28:34;9.90;99.60
2625;DHT22;1322;53.256;10.386;2023-04-05T10:31:12;9.70;99.80
2625;DHT22;1322;53.256;10.386;2023-04-05T10:33:44;9.60;99.40
2625;DHT22;1322;53.256;10.386;2023-04-05T10:41:23;9.70;99.20
2625;DHT22;1322;53.256;10.386;2023-04-05T10:43:49;9.80;99.90
2625;DHT22;1322;53.256;10.386;2023-04-05T10:46:19;9.60;99.90
2625;DHT22;1322;53.256;10.386;2023-04-05T10:51:23;9.30;99.90
2625;DHT22;1322;53.256;10.386;2023-04-05T10:53:51;9.30;99.90
2625;DHT22;1322;53.256;10.386;2023-04-05T10:56:18;9.40;99.90
2625;DHT22;1322;53.256;10.386;2023-04-05T10:58:45;9.50;99.90
2625;DHT22;1322;53.256;10.386;2023-04-05T11:01:12;9.80;99.90
2625;DHT22;1322;53.256;10.386;2023-04-05T11:08:49;10.30;99.90
2625;DHT22;1322;53.256;10.386;2023-04-05T11:11:17;10.40;99.30
2625;DHT22;1322;53.256;10.386;2023-04-05T11:16:46;10.60;99.70
2625;DHT22;1322;53.256;10.386;2023-04-05T11:19:17;10.80;98.40
2625;DHT22;1322;53.256;10.386;2023-04-05T11:21:43;11.00;98.50
2625;DHT22;1322;53.256;10.386;2023-04-05T11:24:12;10.80;98.20
2625;DHT22;1322;53.256;10.386;2023-04-05T11:29:14;10.70;99.20
2625;DHT22;1322;53.256;10.386;2023-04-05T11:32:04;10.40;98.30
2625;DHT22;1322;53.256;10.386;2023-04-05T11:34:35;10.20;98.80
2625;DHT22;1322;53.256;10.386;2023-04-05T11:37:00;10.10;98.50
2625;DHT22;1322;53.256;10.386;2023-04-05T11:39:27;9.90;98.90
2625;DHT22;1322;53.256;10.386;2023-04-05T11:41:59;9.90;99.90
2625;DHT22;1322;53.256;10.386;2023-04-05T11:44:51;9.90;99.90
2625;DHT22;1322;53.256;10.386;2023-04-05T11:47:16;10.10;99.60
2625;DHT22;1322;53.256;10.386;2023-04-05T11:49:42;10.40;98.50
2625;DHT22;1322;53.256;10.386;2023-04-05T11:52:19;10.50;98.20
2625;DHT22;1322;53.256;10.386;2023-04-05T11:54:45;10.60;98.00
2625;DHT22;1322;53.256;10.386;2023-04-05T11:57:22;10.70;98.20
2625;DHT22;1322;53.256;10.386;2023-04-05T11:59:52;10.80;97.90
2625;DHT22;1322;53.256;10.386;2023-04-05T12:02:18;10.80;97.90
2625;DHT22;1322;53.256;10.386;2023-04-05T12:04:53;10.90;98.20
2625;DHT22;1322;53.256;10.386;2023-04-05T12:07:19;10.90;97.80
2625;DHT22;1322;53.256;10.386;2023-04-05T12:10:07;11.10;98.50
2625;DHT22;1322;53.256;10.386;2023-04-05T12:12:38;11.20;98.00
2625;DHT22;1322;53.256;10.386;2023-04-05T12:15:05;11.20;97.00
2625;DHT22;1322;53.256;10.386;2023-04-05T12:17:42;11.30;97.80
2625;DHT22;1322;53.256;10.386;2023-04-05T12:20:10;11.50;97.80
2625;DHT22;1322;53.256;10.386;2023-04-05T12:22:37;11.70;97.10
2625;DHT22;1322;53.256;10.386;2023-04-05T12:25:03;11.70;96.70
2625;DHT22;1322;53.256;10.386;2023-04-05T12:27:29;11.70;96.30
2625;DHT22;1322;53.256;10.386;2023-04-05T12:30:05;11.80;96.60
2625;DHT22;1322;53.256;10.386;2023-04-05T12:32:44;12.10;96.20
2625;DHT22;1322;53.256;10.386;2023-04-05T12:35:21;12.30;95.90
2625;DHT22;1322;53.256;10.386;2023-04-05T12:37:51;12.60;96.40
2625;DHT22;1322;53.256;10.386;2023-04-05T12:40:21;12.60;95.30
2625;DHT22;1322;53.256;10.386;2023-04-05T12:42:47;12.80;96.10
2625;DHT22;1322;53.256;10.386;2023-04-05T12:45:13;12.80;95.60
2625;DHT22;1322;53.256;10.386;2023-04-05T12:47:58;12.80;95.50
2625;DHT22;1322;53.256;10.386;2023-04-05T12:50:28;13.00;94.60
2625;DHT22;1322;53.256;10.386;2023-04-05T12:52:59;13.20;94.90
2625;DHT22;1322;53.256;10.386;2023-04-05T12:55:27;13.30;95.00
2625;DHT22;1322;53.256;10.386;2023-04-05T12:57:55;13.60;94.90
2625;DHT22;1322;53.256;10.386;2023-04-05T13:00:21;13.80;94.40
2625;DHT22;1322;53.256;10.386;2023-04-05T13:02:52;13.80;92.20
2625;DHT22;1322;53.256;10.386;2023-04-05T13:05:22;13.90;91.00
2625;DHT22;1322;53.256;10.386;2023-04-05T13:07:48;13.90;91.40
2625;DHT22;1322;53.256;10.386;2023-04-05T13:10:15;13.80;90.70
2625;DHT22;1322;53.256;10.386;2023-04-05T13:12:41;13.70;91.30
2625;DHT22;1322;53.256;10.386;2023-04-05T13:15:08;13.30;89.70
2625;DHT22;1322;53.256;10.386;2023-04-05T13:17:33;13.40;89.30
2625;DHT22;1322;53.256;10.386;2023-04-05T13:19:59;13.20;87.80
2625;DHT22;1322;53.256;10.386;2023-04-05T13:22:25;12.90;87.60
2625;DHT22;1322;53.256;10.386;2023-04-05T13:24:54;13.00;89.10
2625;DHT22;1322;53.256;10.386;2023-04-05T13:27:19;12.90;89.00
2625;DHT22;1322;53.256;10.386;2023-04-05T13:29:48;12.80;89.80
2625;DHT22;1322;53.256;10.386;2023-04-05T13:32:13;12.60;90.40
2625;DHT22;1322;53.256;10.386;2023-04-05T13:34:39;12.40;89.70
2625;DHT22;1322;53.256;10.386;2023-04-05T13:37:05;12.30;90.20
2625;DHT22;1322;53.256;10.386;2023-04-05T13:39:30;12.30;90.40
2625;DHT22;1322;53.256;10.386;2023-04-05T13:41:56;12.40;90.30
2625;DHT22;1322;53.256;10.386;2023-04-05T13:44:22;12.50;88.70
2625;DHT22;1322;53.256;10.386;2023-04-05T13:46:48;12.70;89.40
2625;DHT22;1322;53.256;10.386;2023-04-05T13:49:14;12.40;90.30
2625;DHT22;1322;53.256;10.386;2023-04-05T13:51:39;12.60;90.40
2625;DHT22;1322;53.256;10.386;2023-04-05T13:54:09;12.80;90.80
2625;DHT22;1322;53.256;10.386;2023-04-05T13:56:39;12.80;90.20
2625;DHT22;1322;53.256;10.386;2023-04-05T13:59:05;12.90;89.70
2625;DHT22;1322;53.256;10.386;2023-04-05T14:01:32;13.10;88.80
2625;DHT22;1322;53.256;10.386;2023-04-05T14:03:58;13.10;89.20
2625;DHT22;1322;53.256;10.386;2023-04-05T14:06:24;13.20;88.70
2625;DHT22;1322;53.256;10.386;2023-04-05T14:08:49;13.10;86.70
2625;DHT22;1322;53.256;10.386;2023-04-05T14:11:20;13.10;87.20
2625;DHT22;1322;53.256;10.386;2023-04-05T14:13:47;13.10;87.60
2625;DHT22;1322;53.256;10.386;2023-04-05T14:16:13;13.00;86.40
2625;DHT22;1322;53.256;10.386;2023-04-05T14:18:39;12.80;87.60
2625;DHT22;1322;53.256;10.386;2023-04-05T14:21:04;12.80;87.10
2625;DHT22;1322;53.256;10.386;2023-04-05T14:23:30;12.70;86.60
2625;DHT22;1322;53.256;10.386;2023-04-05T14:25:56;12.70;86.40
2625;DHT22;1322;53.256;10.386;2023-04-05T14:28:22;12.80;87.30
2625;DHT22;1322;53.256;10.386;2023-04-05T14:30:48;12.80;86.70
2625;DHT22;1322;53.256;10.386;2023-04-05T14:33:14;12.70;87.90
2625;DHT22;1322;53.256;10.386;2023-04-05T14:35:41;12.80;86.40
2625;DHT22;1322;53.256;10.386;2023-04-05T14:38:07;12.80;86.70
2625;DHT22;1322;53.256;10.386;2023-04-05T14:40:32;12.90;87.30
2625;DHT22;1322;53.256;10.386;2023-04-05T14:42:58;13.00;88.10
2625;DHT22;1322;53.256;10.386;2023-04-05T14:45:24;13.10;88.20
2625;DHT22;1322;53.256;10.386;2023-04-05T14:47:58;13.30;86.10
2625;DHT22;1322;53.256;10.386;2023-04-05T14:50:24;13.40;87.50
2625;DHT22;1322;53.256;10.386;2023-04-05T14:52:51;13.50;88.90
2625;DHT22;1322;53.256;10.386;2023-04-05T14:55:17;13.60;88.30
2625;DHT22;1322;53.256;10.386;2023-04-05T14:57:43;13.40;87.70
2625;DHT22;1322;53.256;10.386;2023-04-05T15:00:10;13.10;86.20
2625;DHT22;1322;53.256;10.386;2023-04-05T15:02:36;12.60;87.90
2625;DHT22;1322;53.256;10.386;2023-04-05T15:05:03;12.30;87.40
2625;DHT22;1322;53.256;10.386;2023-04-05T15:07:29;12.10;88.20
2625;DHT22;1322;53.256;10.386;2023-04-05T15:09:55;11.90;89.40
2625;DHT22;1322;53.256;10.386;2023-04-05T15:12:21;11.90;89.60
2625;DHT22;1322;53.256;10.386;2023-04-05T15:14:47;11.70;88.50
2625;DHT22;1322;53.256;10.386;2023-04-05T15:17:17;11.60;89.50
2625;DHT22;1322;53.256;10.386;2023-04-05T15:19:42;11.70;89.30
2625;DHT22;1322;53.256;10.386;2023-04-05T15:22:08;11.90;89.50
2625;DHT22;1322;53.256;10.386;2023-04-05T15:24:35;11.70;88.80
2625;DHT22;1322;53.256;10.386;2023-04-05T15:27:02;11.70;90.10
2625;DHT22;1322;53.256;10.386;2023-04-05T15:29:28;11.80;90.40
2625;DHT22;1322;53.256;10.386;2023-04-05T15:31:54;11.70;90.30
2625;DHT22;1322;53.256;10.386;2023-04-05T15:34:20;11.70;90.50
2625;DHT22;1322;53.256;10.386;2023-04-05T15:36:45;11.70;90.90
2625;DHT22;1322;53.256;10.386;2023-04-05T15:39:11;11.80;90.90
2625;DHT22;1322;53.256;10.386;2023-04-05T15:41:38;11.80;90.50
2625;DHT22;1322;53.256;10.386;2023-04-05T15:44:03;11.70;90.90
2625;DHT22;1322;53.256;10.386;2023-04-05T15:46:29;11.80;90.60
2625;DHT22;1322;53.256;10.386;2023-04-05T15:48:55;11.80;90.90
2625;DHT22;1322;53.256;10.386;2023-04-05T15:51:21;11.70;91.20
2625;DHT22;1322;53.256;10.386;2023-04-05T15:53:46;11.70;91.50
2625;DHT22;1322;53.256;10.386;2023-04-05T15:56:12;11.60;91.90
2625;DHT22;1322;53.256;10.386;2023-04-05T15:58:38;11.50;91.40
2625;DHT22;1322;53.256;10.386;2023-04-05T16:01:04;11.60;91.90
2625;DHT22;1322;53.256;10.386;2023-04-05T16:03:30;11.50;92.30
2625;DHT22;1322;53.256;10.386;2023-04-05T16:05:56;11.50;92.70
2625;DHT22;1322;53.256;10.386;2023-04-05T16:08:22;11.50;92.70
2625;DHT22;1322;53.256;10.386;2023-04-05T16:10:49;11.50;92.20
2625;DHT22;1322;53.256;10.386;2023-04-05T16:13:15;11.50;92.40
2625;DHT22;1322;53.256;10.386;2023-04-05T16:15:41;11.50;93.10
2625;DHT22;1322;53.256;10.386;2023-04-05T16:18:07;11.50;93.40
2625;DHT22;1322;53.256;10.386;2023-04-05T16:20:34;11.40;93.80
2625;DHT22;1322;53.256;10.386;2023-04-05T16:23:03;11.40;93.60
2625;DHT22;1322;53.256;10.386;2023-04-05T16:25:29;11.40;93.90
2625;DHT22;1322;53.256;10.386;2023-04-05T16:27:55;11.20;93.70
2625;DHT22;1322;53.256;10.386;2023-04-05T16:30:21;11.20;93.90